Time;durP1;ratioP1;P1;durP2;ratioP2;P2;SDS_P1;SDS_P2;PMS_P1;PMS_P2;Temp;Humidity;BMP_temperature;BMP_pressure;BME280_temperature;BME280_humidity;BME280_pressure;Samples;Min_cycle;Max_cycle;Signal;HPM_P1;HPM_P2
2022/05/20 00:00:45;;;;;;;;;1.00;1.00;;;;;23.72;56.52;101703.78;5078987;27;45441;-82
2022/05/20 00:03:11;;;;;;;;;0.25;0.25;;;;;23.72;56.17;101702.91;5078130;28;45173;-85
2022/05/20 00:05:37;;;;;;;;;0.75;0.00;;;;;23.72;55.74;101698.50;5077871;28;45752;-85
2022/05/20 00:08:03;;;;;;;;;2.25;1.00;;;;;23.73;55.67;101697.63;5083530;27;45395;-83
2022/05/20 00:10:30;;;;;;;;;1.00;1.00;;;;;23.70;55.39;101688.78;5100413;27;45272;-85
2022/05/20 00:12:56;;;;;;;;;2.00;0.50;;;;;23.66;55.09;101690.56;5103176;27;45319;-83
2022/05/20 00:15:24;;;;;;;;;1.00;1.00;;;;;23.70;54.68;101695.00;5100303;27;45505;-80
2022/05/20 00:17:50;;;;;;;;;0.00;0.00;;;;;23.72;54.49;101690.56;5089905;27;45655;-83
2022/05/20 00:20:18;;;;;;;;;1.00;1.00;;;;;23.75;53.81;101692.38;5088737;27;45288;-84
2022/05/20 00:22:44;;;;;;;;;1.00;0.00;;;;;23.75;53.34;101687.06;5098764;27;45402;-83
2022/05/20 00:27:55;;;;;;;;;1.25;0.00;;;;;23.72;52.62;101681.75;5077567;27;45837;-82
2022/05/20 00:30:21;;;;;;;;;1.00;0.25;;;;;23.72;51.92;101687.06;5078126;28;45509;-83
2022/05/20 00:32:47;;;;;;;;;1.25;0.75;;;;;23.68;52.04;101678.22;5059924;28;45316;-84
2022/05/20 00:35:13;;;;;;;;;1.25;0.00;;;;;23.62;51.47;101683.47;5077671;27;45394;-84
2022/05/20 00:37:43;;;;;;;;;1.00;1.00;;;;;23.59;51.34;101681.72;5085069;27;45437;-84
2022/05/20 00:40:13;;;;;;;;;0.00;0.00;;;;;23.55;51.11;101676.41;5077570;28;45444;-85
2022/05/20 00:42:40;;;;;;;;;0.25;0.25;;;;;23.54;50.74;101678.13;5059527;27;45256;-84
2022/05/20 00:45:07;;;;;;;;;0.00;0.00;;;;;23.55;50.71;101681.69;5077141;27;45941;-85
2022/05/20 00:47:33;;;;;;;;;0.00;0.00;;;;;23.52;50.46;101690.50;5076925;27;45696;-83
2022/05/20 00:50:04;;;;;;;;;0.00;0.00;;;;;23.48;50.56;101679.03;5076946;28;45446;-84
2022/05/20 00:52:32;;;;;;;;;0.00;0.00;;;;;23.46;50.72;101679.88;5077482;28;45213;-84
2022/05/20 00:55:02;;;;;;;;;2.00;2.00;;;;;23.47;50.88;101677.25;5076501;27;45565;-84
2022/05/20 00:57:32;;;;;;;;;0.00;0.00;;;;;23.45;51.07;101672.81;5077290;28;45418;-84
2022/05/20 01:00:08;;;;;;;;;2.75;0.00;;;;;23.42;51.22;101667.53;5076823;27;45978;-84
2022/05/20 01:02:35;;;;;;;;;2.00;0.25;;;;;23.41;51.49;101673.69;5077655;27;45428;-84
2022/05/20 01:05:03;;;;;;;;;0.00;0.00;;;;;23.42;51.20;101671.03;5093306;27;45379;-84
2022/05/20 01:07:36;;;;;;;;;1.00;1.00;;;;;23.43;51.21;101669.31;5093289;27;45238;-84
2022/05/20 01:10:02;;;;;;;;;2.00;0.25;;;;;23.40;50.85;101662.22;5077028;27;45410;-84
2022/05/20 01:12:28;;;;;;;;;0.00;0.00;;;;;23.36;50.69;101654.28;5077063;28;45442;-84
2022/05/20 01:14:54;;;;;;;;;1.25;0.75;;;;;23.28;51.06;101644.56;5076579;28;45232;-83
2022/05/20 01:17:21;;;;;;;;;0.00;0.00;;;;;23.22;50.90;101647.16;5077173;27;45205;-83
2022/05/20 01:19:53;;;;;;;;;1.00;1.00;;;;;23.21;51.04;101641.88;5092721;27;45246;-85
2022/05/20 01:22:25;;;;;;;;;0.00;0.00;;;;;23.19;51.01;101641.88;5097934;27;45572;-85
2022/05/20 01:24:51;;;;;;;;;2.00;0.00;;;;;23.15;50.53;101635.66;5078969;27;45468;-83
2022/05/20 01:27:16;;;;;;;;;0.00;0.00;;;;;23.12;50.61;101630.34;5087421;27;45421;-85
2022/05/20 01:29:42;;;;;;;;;1.00;0.00;;;;;23.10;50.50;101624.16;5079666;27;45306;-84
2022/05/20 01:32:08;;;;;;;;;0.00;0.00;;;;;23.10;50.15;101618.88;5058899;28;45499;-82
2022/05/20 01:34:33;;;;;;;;;0.00;0.00;;;;;23.07;50.32;101616.22;5076566;28;45329;-83
2022/05/20 01:36:59;;;;;;;;;1.00;1.00;;;;;23.07;50.53;101610.06;5076396;28;45274;-84
2022/05/20 01:39:25;;;;;;;;;0.00;0.00;;;;;23.06;50.43;101601.25;5076664;28;45213;-84
2022/05/20 01:42:02;;;;;;;;;1.50;0.00;;;;;23.02;50.26;101608.25;5077265;27;45230;-83
2022/05/20 01:44:49;;;;;;;;;0.00;0.00;;;;;22.99;50.48;101607.38;5059941;28;45982;-83
2022/05/20 01:47:53;;;;;;;;;1.00;0.00;;;;;22.95;50.53;101606.47;5074699;28;45440;-84
2022/05/20 01:50:31;;;;;;;;;0.75;0.75;;;;;22.88;50.35;101599.41;5058765;28;45423;-84
2022/05/20 01:53:05;;;;;;;;;0.50;0.00;;;;;22.83;50.55;101596.72;5077890;27;45342;-85
2022/05/20 01:55:35;;;;;;;;;0.00;0.00;;;;;22.84;50.24;101592.31;5080217;28;46133;-84
2022/05/20 01:58:18;;;;;;;;;1.00;1.00;;;;;22.83;50.70;101598.47;5084113;27;45401;-84
2022/05/20 02:00:47;;;;;;;;;0.00;0.00;;;;;22.79;50.59;101594.03;5076314;27;45469;-84
2022/05/20 02:03:31;;;;;;;;;0.00;0.00;;;;;22.78;50.79;101587.88;5076365;28;45720;-84
2022/05/20 02:06:09;;;;;;;;;0.00;0.00;;;;;22.78;50.38;101587.00;5075817;28;45821;-84
2022/05/20 02:08:55;;;;;;;;;2.00;0.00;;;;;22.70;50.91;101579.91;5057892;28;45367;-84
2022/05/20 02:11:42;;;;;;;;;1.00;1.00;;;;;22.64;51.04;101577.25;5076972;28;45463;-84
2022/05/20 02:14:15;;;;;;;;;0.25;0.00;;;;;22.64;51.51;101578.97;5076775;28;45284;-84
2022/05/20 02:16:46;;;;;;;;;0.75;0.00;;;;;22.66;51.87;101569.31;5077125;27;46533;-85
2022/05/20 02:19:23;;;;;;;;;0.50;0.50;;;;;22.67;51.83;101560.53;5076627;28;45261;-84
2022/05/20 02:21:55;;;;;;;;;0.00;0.00;;;;;22.68;51.92;101563.16;5080152;27;45377;-84
2022/05/20 02:24:25;;;;;;;;;0.00;0.00;;;;;22.69;52.36;101562.28;5079312;27;45411;-83
2022/05/20 02:27:14;;;;;;;;;1.00;0.25;;;;;22.70;52.58;101556.16;5095840;27;46210;-84
2022/05/20 02:29:47;;;;;;;;;0.25;0.00;;;;;22.72;52.30;101561.47;5096439;27;45544;-84
2022/05/20 02:32:41;;;;;;;;;0.00;0.00;;;;;22.74;52.68;101564.97;5077045;27;45360;-84
2022/05/20 02:35:07;;;;;;;;;1.75;1.00;;;;;22.74;52.68;101559.69;5065003;27;45309;-84
2022/05/20 02:37:35;;;;;;;;;2.00;0.50;;;;;22.73;53.00;101550.91;5095337;27;45858;-83
2022/05/20 02:40:02;;;;;;;;;0.75;0.75;;;;;22.75;52.69;101557.94;5096150;27;45319;-84
2022/05/20 02:42:31;;;;;;;;;0.25;0.25;;;;;22.72;52.91;101558.81;5096377;27;45462;-84
2022/05/20 02:45:01;;;;;;;;;0.50;0.00;;;;;22.70;53.43;101557.91;5086535;27;45365;-84
2022/05/20 02:47:33;;;;;;;;;0.50;0.50;;;;;22.72;53.55;101550.91;5077878;27;45419;-83
2022/05/20 02:49:59;;;;;;;;;3.00;0.00;;;;;22.73;53.40;101556.19;5076858;27;45213;-84
2022/05/20 02:52:25;;;;;;;;;0.75;0.75;;;;;22.70;54.26;101550.00;5096270;27;45296;-83
2022/05/20 02:54:50;;;;;;;;;1.75;1.00;;;;;22.66;54.79;101546.47;5096681;27;45544;-84
2022/05/20 02:57:16;;;;;;;;;0.75;0.00;;;;;22.66;54.66;101553.47;5095726;27;45290;-84
2022/05/20 03:05:13;;;;;;;;;0.75;0.75;;;;;22.50;56.17;101545.47;5078887;27;45715;-84
2022/05/20 03:07:39;;;;;;;;;0.75;0.75;;;;;22.51;56.16;101555.16;5078842;28;45446;-83
2022/05/20 03:10:05;;;;;;;;;1.00;1.00;;;;;22.50;57.11;101552.50;5078762;28;45346;-83
2022/05/20 03:12:30;;;;;;;;;2.50;1.25;;;;;22.47;56.96;101548.09;5080123;28;45402;-84
2022/05/20 03:14:56;;;;;;;;;1.00;0.50;;;;;22.44;57.92;101542.78;5080670;27;45411;-84
2022/05/20 03:17:22;;;;;;;;;2.00;0.00;;;;;22.39;58.04;101544.47;5062726;27;47730;-76
2022/05/20 03:19:47;;;;;;;;;0.75;0.00;;;;;22.36;59.74;101547.09;5081351;27;45857;-84
2022/05/20 03:22:13;;;;;;;;;1.25;1.00;;;;;22.36;59.58;101545.31;5078744;28;45437;-83
2022/05/20 03:24:40;;;;;;;;;2.00;2.00;;;;;22.33;60.13;101545.31;5079138;28;45621;-84
2022/05/20 03:27:06;;;;;;;;;3.00;2.25;;;;;22.30;60.37;101547.06;5060136;28;46276;-83
2022/05/20 03:29:32;;;;;;;;;0.75;0.75;;;;;22.27;60.56;101551.44;5078920;27;46096;-83
2022/05/20 03:31:58;;;;;;;;;1.00;1.00;;;;;22.30;60.88;101544.41;5078661;27;45299;-83
2022/05/20 03:34:24;;;;;;;;;2.00;2.00;;;;;22.30;60.70;101547.91;5095994;27;45483;-83
2022/05/20 03:36:50;;;;;;;;;1.50;1.50;;;;;22.30;61.11;101549.69;5099248;27;45371;-83
2022/05/20 03:39:19;;;;;;;;;0.50;0.50;;;;;22.33;60.80;101537.41;5100923;27;45401;-83
2022/05/20 03:41:46;;;;;;;;;3.50;1.75;;;;;22.33;61.49;101529.50;5099893;27;45330;-83
2022/05/20 03:44:14;;;;;;;;;0.00;0.00;;;;;22.31;61.70;101518.03;5091887;27;45551;-83
2022/05/20 03:46:44;;;;;;;;;3.00;1.50;;;;;22.33;62.15;101521.56;5079238;27;45477;-83
2022/05/20 03:49:10;;;;;;;;;1.00;1.00;;;;;22.34;61.96;101518.06;5079564;27;45665;-84
2022/05/20 03:51:37;;;;;;;;;1.00;1.00;;;;;22.36;62.31;101510.16;5078317;28;45275;-83
2022/05/20 03:54:04;;;;;;;;;1.00;1.00;;;;;22.38;62.29;101513.69;5078206;28;45489;-83
2022/05/20 03:56:29;;;;;;;;;1.00;1.00;;;;;22.37;62.68;101496.09;5077958;27;46141;-83
2022/05/20 03:58:55;;;;;;;;;1.00;1.00;;;;;22.34;62.75;101501.34;5077790;28;45404;-83
2022/05/20 04:04:05;;;;;;;;;1.25;1.25;;;;;22.24;63.46;101503.03;5085293;27;45412;-79
2022/05/20 04:06:31;;;;;;;;;1.00;1.00;;;;;22.23;63.82;101503.91;5099013;27;45857;-83
2022/05/20 04:08:57;;;;;;;;;2.25;2.00;;;;;22.19;64.18;101502.97;5097514;27;45740;-83
2022/05/20 04:11:23;;;;;;;;;4.50;2.00;;;;;22.19;64.68;101504.75;5079769;27;45350;-80
2022/05/20 04:13:49;;;;;;;;;2.00;2.00;;;;;22.17;64.53;101503.84;5082897;27;45221;-82
2022/05/20 04:16:15;;;;;;;;;3.00;2.00;;;;;22.13;65.11;101497.66;5095622;27;46271;-83
2022/05/20 04:18:42;;;;;;;;;2.00;2.00;;;;;22.11;65.54;101504.69;5098467;27;45231;-82
2022/05/20 04:21:10;;;;;;;;;2.75;2.00;;;;;22.06;65.58;101509.91;5098318;27;45420;-79
2022/05/20 04:23:35;;;;;;;;;1.75;1.75;;;;;22.02;65.63;101513.41;5098639;27;45359;-80
2022/05/20 04:26:01;;;;;;;;;2.00;0.75;;;;;22.00;65.76;101511.63;5091546;27;45826;-84
2022/05/20 04:28:27;;;;;;;;;1.75;1.75;;;;;21.95;66.07;101507.22;5078381;28;45689;-83
2022/05/20 04:30:57;;;;;;;;;3.00;2.00;;;;;21.89;66.05;101517.69;5101494;27;45418;-81
2022/05/20 04:33:23;;;;;;;;;2.00;1.50;;;;;21.88;66.48;101507.13;5111384;27;45411;-75
2022/05/20 04:35:49;;;;;;;;;1.25;1.25;;;;;21.87;67.07;101510.63;5092883;28;45414;-84
2022/05/20 04:38:14;;;;;;;;;2.75;2.00;;;;;21.89;67.01;101508.91;5095306;28;44732;-85
2022/05/20 04:40:40;;;;;;;;;3.50;2.00;;;;;21.90;67.45;101511.53;5092079;27;45307;-84
2022/05/20 04:48:34;;;;;;;;;3.00;3.00;;;;;22.06;67.65;101524.88;5077216;28;45827;-84
2022/05/20 04:50:59;;;;;;;;;1.25;1.25;;;;;22.10;68.02;101526.66;5077140;28;45437;-85
2022/05/20 04:56:09;;;;;;;;;2.00;2.00;;;;;22.25;67.89;101533.78;5095293;27;45461;-84
2022/05/20 04:58:35;;;;;;;;;2.75;2.50;;;;;22.29;67.71;101524.19;5108126;27;45374;-84
2022/05/20 05:01:01;;;;;;;;;2.00;2.00;;;;;22.31;68.29;101531.22;5100705;27;45339;-84
2022/05/20 05:03:27;;;;;;;;;2.50;2.50;;;;;22.32;68.39;101537.38;5101070;27;45346;-82
2022/05/20 05:05:53;;;;;;;;;2.50;2.50;;;;;22.33;68.44;101540.03;5100289;27;46381;-84
2022/05/20 05:08:18;;;;;;;;;4.50;3.00;;;;;22.34;68.67;101530.34;5092758;27;45329;-79
2022/05/20 05:10:44;;;;;;;;;1.00;1.00;;;;;22.35;68.62;101532.13;5080088;28;45228;-85
2022/05/20 05:13:11;;;;;;;;;2.75;2.75;;;;;22.35;68.55;101532.13;5077493;27;45409;-85
2022/05/20 05:15:37;;;;;;;;;1.75;1.75;;;;;22.36;68.60;101534.75;5083389;27;46521;-81
2022/05/20 05:18:10;;;;;;;;;1.00;1.00;;;;;22.38;68.44;101542.72;5076194;28;45473;-80
2022/05/20 05:20:36;;;;;;;;;2.25;2.25;;;;;22.37;68.35;101546.22;5075362;28;45321;-76
2022/05/20 05:23:03;;;;;;;;;4.75;3.00;;;;;22.36;68.36;101550.59;5076071;27;45641;-84
2022/05/20 05:25:32;;;;;;;;;3.00;3.00;;;;;22.36;69.34;101536.53;5059067;28;48102;-85
2022/05/20 05:27:58;;;;;;;;;3.25;2.50;;;;;22.35;69.09;101525.06;5075656;28;45427;-82
2022/05/20 05:30:24;;;;;;;;;5.50;3.00;;;;;22.32;69.36;101514.53;5085550;27;46889;-84
2022/05/20 05:32:50;;;;;;;;;2.50;2.25;;;;;22.31;69.32;101512.75;5097200;27;45492;-83
2022/05/20 05:35:19;;;;;;;;;2.75;2.75;;;;;22.29;69.54;101505.72;5096634;27;45582;-81
2022/05/20 05:37:45;;;;;;;;;2.00;2.00;;;;;22.29;69.35;101497.81;5077888;27;45505;-87
2022/05/20 05:40:14;;;;;;;;;3.00;3.00;;;;;22.30;69.46;101491.66;5076907;28;45449;-78
2022/05/20 05:42:41;;;;;;;;;3.50;2.25;;;;;22.30;69.30;101505.72;5076032;28;45557;-79
2022/05/20 05:45:08;;;;;;;;;4.50;3.00;;;;;22.25;70.16;101507.41;5075712;28;45497;-80
2022/05/20 05:47:33;;;;;;;;;6.00;4.00;;;;;22.26;70.08;101512.72;5077893;27;45499;-79
2022/05/20 05:49:59;;;;;;;;;3.75;3.50;;;;;22.24;70.09;101490.72;5094352;27;45501;-79
2022/05/20 05:52:25;;;;;;;;;7.75;4.75;;;;;22.25;71.37;101481.94;5089575;27;45620;-78
2022/05/20 05:54:50;;;;;;;;;3.75;3.00;;;;;22.25;71.69;101479.31;5076155;27;45476;-79
2022/05/20 05:57:16;;;;;;;;;3.25;3.00;;;;;22.25;73.11;101467.84;5074551;28;45343;-79
2022/05/20 05:59:42;;;;;;;;;5.75;3.00;;;;;22.26;73.85;101462.59;5076385;27;45367;-78
2022/05/20 06:02:08;;;;;;;;;4.00;3.00;;;;;22.28;75.40;101481.06;5076327;28;45534;-79
2022/05/20 06:04:35;;;;;;;;;5.50;3.25;;;;;22.24;76.42;101485.44;5074892;27;45483;-79
2022/05/20 06:07:01;;;;;;;;;4.00;4.00;;;;;22.21;79.33;101489.81;5077836;28;45481;-78
2022/05/20 06:09:27;;;;;;;;;5.50;4.25;;;;;22.18;82.31;101511.78;5076092;28;45225;-78
2022/05/20 06:11:53;;;;;;;;;8.00;4.00;;;;;22.11;85.91;101521.41;5075441;27;45609;-79
2022/05/20 06:14:19;;;;;;;;;6.00;5.00;;;;;22.03;86.37;101532.75;5076264;28;45327;-78
2022/05/20 06:16:45;;;;;;;;;7.50;4.00;;;;;22.02;87.70;101530.97;5075697;28;45411;-79
2022/05/20 06:19:11;;;;;;;;;7.00;5.25;;;;;22.02;88.22;101515.16;5068157;27;45368;-79
2022/05/20 06:21:40;;;;;;;;;6.00;4.25;;;;;22.02;91.54;101501.97;5076215;27;45333;-80
2022/05/20 06:24:08;;;;;;;;;6.50;5.50;;;;;22.02;93.67;101478.25;5087697;27;45327;-79
2022/05/20 06:26:37;;;;;;;;;5.00;5.00;;;;;22.01;94.96;101458.91;5107386;27;45415;-80
2022/05/20 06:29:04;;;;;;;;;6.00;6.00;;;;;22.00;95.22;101437.78;5095401;27;45307;-83
2022/05/20 06:31:30;;;;;;;;;6.00;5.00;;;;;21.97;96.96;101409.66;5075183;28;45684;-80
2022/05/20 06:33:57;;;;;;;;;6.00;4.00;;;;;21.97;100.00;101374.50;5077848;28;45583;-78
2022/05/20 06:41:54;;;;;;;;;5.25;5.25;;;;;22.00;96.95;101469.44;5077066;27;45792;-76
2022/05/20 06:44:21;;;;;;;;;5.25;5.00;;;;;21.93;98.79;101474.66;5086286;27;46042;-75
2022/05/20 06:46:47;;;;;;;;;5.25;5.25;;;;;21.89;98.06;101454.41;5099534;27;45473;-75
2022/05/20 06:49:13;;;;;;;;;7.75;7.75;;;;;21.86;99.85;101457.03;5099150;27;45350;-75
2022/05/20 06:51:39;;;;;;;;;6.50;6.25;;;;;21.86;100.00;101449.13;5099310;27;45259;-75
2022/05/20 06:54:07;;;;;;;;;6.00;4.25;;;;;21.83;100.00;101414.81;5088659;27;45347;-75
2022/05/20 06:56:33;;;;;;;;;6.00;4.25;;;;;21.82;100.00;101362.97;5076539;27;45837;-76
2022/05/20 06:59:01;;;;;;;;;8.00;6.00;;;;;21.80;100.00;101247.00;5098562;27;45401;-76
2022/05/20 07:01:28;;;;;;;;;4.25;4.25;;;;;21.78;100.00;101139.78;5099520;27;45325;-76
2022/05/20 07:03:54;;;;;;;;;7.75;6.00;;;;;21.78;100.00;101227.66;5098344;27;46151;-78
2022/05/20 07:06:20;;;;;;;;;9.00;7.00;;;;;21.75;100.00;101261.03;5074273;28;46011;-78
2022/05/20 07:08:49;;;;;;;;;9.25;8.00;;;;;21.70;100.00;101234.66;5077927;27;45477;-78
2022/05/20 07:11:19;;;;;;;;;7.00;6.25;;;;;21.69;100.00;101221.44;5074628;28;45510;-75
2022/05/20 07:13:46;;;;;;;;;8.00;7.75;;;;;21.68;100.00;101228.47;5058400;28;46729;-76
2022/05/20 07:16:12;;;;;;;;;16.25;12.00;;;;;21.67;100.00;101231.09;5077206;28;45667;-78
2022/05/20 07:18:38;;;;;;;;;15.50;13.25;;;;;21.67;100.00;101249.53;5070513;28;45439;-79
2022/05/20 07:21:04;;;;;;;;;14.25;12.75;;;;;21.69;100.00;101234.63;5073305;28;45871;-76
2022/05/20 07:23:31;;;;;;;;;17.75;16.25;;;;;21.71;100.00;101252.19;5076121;28;45521;-80
2022/05/20 07:25:57;;;;;;;;;16.00;14.50;;;;;21.76;100.00;101271.56;5065189;27;45895;-79
2022/05/20 07:28:23;;;;;;;;;15.00;10.75;;;;;21.80;100.00;101273.38;5079316;27;45422;-80
2022/05/20 07:30:50;;;;;;;;;12.25;10.25;;;;;21.84;100.00;101292.72;5099105;27;45286;-79
2022/05/20 07:33:16;;;;;;;;;11.00;9.75;;;;;21.86;100.00;101297.97;5078871;27;45511;-79
2022/05/20 07:35:41;;;;;;;;;8.50;8.00;;;;;21.88;100.00;101326.09;5079694;27;45848;-79
2022/05/20 07:38:08;;;;;;;;;7.25;7.25;;;;;21.87;100.00;101336.66;5076402;28;46027;-80
2022/05/20 07:40:34;;;;;;;;;10.00;8.50;;;;;21.87;100.00;101326.09;5072693;27;45457;-80
2022/05/20 07:42:59;;;;;;;;;9.50;8.00;;;;;21.85;100.00;101328.75;5070033;27;46214;-78
2022/05/20 07:45:25;;;;;;;;;13.00;11.00;;;;;21.95;100.00;101361.28;5076276;28;45470;-79
2022/05/20 07:47:53;;;;;;;;;10.75;8.50;;;;;21.94;100.00;101384.16;5079610;28;45423;-78
2022/05/20 07:50:20;;;;;;;;;9.25;9.00;;;;;21.90;100.00;101406.09;5077573;28;45499;-78
2022/05/20 07:55:40;;;;;;;;;7.00;7.00;;;;;21.82;100.00;101430.63;5072418;28;46041;-78
2022/05/20 07:58:20;;;;;;;;;9.00;7.50;;;;;21.79;100.00;101466.66;5077808;27;45492;-78
2022/05/20 08:00:50;;;;;;;;;8.25;7.50;;;;;21.80;100.00;101399.88;5049266;27;45537;-78
2022/05/20 08:04:52;;;;;;;;;14.00;10.75;;;;;21.82;100.00;101384.06;5078402;27;45228;-79
2022/05/20 08:06:08;;;;;;;;;12.75;9.75;;;;;21.90;100.00;101373.59;5075133;27;45312;-79
2022/05/20 08:08:34;;;;;;;;;11.50;10.50;;;;;21.89;100.00;101369.19;5065870;27;45588;-79
2022/05/20 08:10:59;;;;;;;;;11.75;11.00;;;;;21.92;100.00;101340.22;5097463;27;45216;-79
2022/05/20 08:13:28;;;;;;;;;13.50;13.50;;;;;21.92;100.00;101340.22;5075422;27;46087;-83
2022/05/20 08:15:54;;;;;;;;;14.25;11.75;;;;;21.86;100.00;101338.41;5068252;28;45510;-84
2022/05/20 08:18:19;;;;;;;;;15.50;12.50;;;;;21.87;100.00;101344.56;5072218;27;45513;-85
2022/05/20 08:20:45;;;;;;;;;10.25;10.00;;;;;21.87;100.00;101345.41;5073466;27;45548;-87
2022/05/20 08:23:11;;;;;;;;;11.75;9.25;;;;;21.84;100.00;101349.78;5054356;28;47360;-84
2022/05/20 08:25:37;;;;;;;;;15.00;11.25;;;;;21.85;100.00;101344.56;5067512;28;45597;-88
2022/05/20 08:28:04;;;;;;;;;12.25;11.25;;;;;21.84;100.00;101313.78;5071121;28;45593;-83
2022/05/20 08:30:30;;;;;;;;;13.25;12.00;;;;;21.85;100.00;101319.94;5074943;28;45583;-82
2022/05/20 08:32:59;;;;;;;;;11.75;11.25;;;;;21.84;100.00;101342.78;5080623;27;45586;-82
2022/05/20 08:35:27;;;;;;;;;17.50;12.50;;;;;21.81;100.00;101340.13;5078454;27;45440;-84
2022/05/20 08:37:54;;;;;;;;;12.50;11.00;;;;;21.81;100.00;101363.84;5071766;27;45464;-86
2022/05/20 08:40:25;;;;;;;;;13.00;11.75;;;;;21.76;100.00;101458.69;5083089;27;45389;-84
2022/05/20 08:42:54;;;;;;;;;14.75;14.00;;;;;21.70;100.00;101506.09;5096439;27;46371;-84
2022/05/20 08:45:23;;;;;;;;;15.50;13.25;;;;;21.60;100.00;101522.66;5078676;27;45747;-85
2022/05/20 08:47:51;;;;;;;;;12.25;10.75;;;;;21.49;100.00;101551.50;5073961;27;45512;-79
2022/05/20 08:50:24;;;;;;;;;17.25;15.25;;;;;21.33;100.00;101427.50;5073247;27;45309;-81
2022/05/20 08:52:53;;;;;;;;;16.75;13.25;;;;;21.33;100.00;101476.69;5073208;27;45671;-79
2022/05/20 08:55:19;;;;;;;;;16.00;11.25;;;;;21.34;100.00;101408.22;5072754;28;45821;-78
2022/05/20 08:57:59;;;;;;;;;13.00;12.50;;;;;21.36;100.00;101363.47;5075407;28;45687;-80
2022/05/20 09:00:27;;;;;;;;;18.25;16.25;;;;;21.44;100.00;101389.84;5066012;28;45438;-79
2022/05/20 09:02:52;;;;;;;;;15.25;11.50;;;;;21.48;100.00;101396.94;5059923;28;46195;-77
2022/05/20 09:05:30;;;;;;;;;15.25;12.50;;;;;21.56;100.00;101366.25;5095987;27;45421;-79
2022/05/20 09:08:24;;;;;;;;;16.00;14.00;;;;;21.63;100.00;101375.13;5089537;27;45280;-79
2022/05/20 09:10:57;;;;;;;;;18.25;14.25;;;;;21.64;100.00;101392.72;5077228;27;45442;-79
2022/05/20 09:16:27;;;;;;;;;19.50;17.00;;;;;21.55;100.00;101393.47;5072893;28;45544;-80
2022/05/20 09:19:07;;;;;;;;;17.25;14.50;;;;;21.49;100.00;101394.28;5091397;27;45387;-80
2022/05/20 09:21:38;;;;;;;;;14.75;13.75;;;;;21.48;100.00;101387.28;5087341;27;45168;-81
2022/05/20 09:24:17;;;;;;;;;17.00;15.25;;;;;21.48;100.00;101376.75;5069353;28;46115;-81
2022/05/20 09:26:50;;;;;;;;;17.50;17.00;;;;;21.50;100.00;101350.41;5074960;27;45370;-82
2022/05/20 09:29:58;;;;;;;;;16.75;16.75;;;;;21.52;100.00;101337.22;5077032;27;45589;-81
2022/05/20 09:33:04;;;;;;;;;17.75;16.00;;;;;21.49;100.00;101378.50;5090817;27;45607;-80
2022/05/20 09:35:34;;;;;;;;;14.50;12.50;;;;;21.44;100.00;101477.69;5064402;27;46127;-80
2022/05/20 09:38:10;;;;;;;;;18.25;17.25;;;;;21.41;100.00;101542.63;5058036;27;45319;-87
2022/05/20 09:40:41;;;;;;;;;14.00;12.75;;;;;21.32;100.00;101511.78;5060258;27;45728;-81
2022/05/20 09:43:07;;;;;;;;;15.50;14.50;;;;;21.23;100.00;101343.16;5077848;27;45382;-80
2022/05/20 09:45:44;;;;;;;;;18.75;18.75;;;;;21.28;100.00;101342.31;5080120;27;46080;-83
2022/05/20 09:48:14;;;;;;;;;18.00;15.25;;;;;21.41;100.00;101372.28;5055889;28;45733;-80
2022/05/20 09:50:40;;;;;;;;;19.00;14.75;;;;;21.61;100.00;101282.00;5072625;27;45406;-81
2022/05/20 09:53:33;;;;;;;;;16.25;15.25;;;;;21.89;100.00;101258.47;5083259;27;46280;-81
2022/05/20 09:56:13;;;;;;;;;16.50;14.00;;;;;22.20;100.00;101238.34;5075005;27;45367;-79
2022/05/20 09:58:39;;;;;;;;;19.75;15.00;;;;;22.46;100.00;101231.44;5074175;28;45850;-76
2022/05/20 10:01:12;;;;;;;;;14.25;11.00;;;;;22.72;100.00;101218.28;5077152;28;45188;-81
2022/05/20 10:03:43;;;;;;;;;17.00;15.25;;;;;22.91;100.00;101213.00;5076871;28;45431;-78
2022/05/20 10:06:24;;;;;;;;;14.25;14.00;;;;;23.06;100.00;101212.13;5075612;28;45561;-82
2022/05/20 10:09:22;;;;;;;;;19.50;18.75;;;;;23.23;100.00;101223.56;5079459;28;45861;-82
2022/05/20 10:11:54;;;;;;;;;22.00;17.50;;;;;23.37;100.00;101210.38;5044933;28;45723;-79
2022/05/20 10:14:25;;;;;;;;;16.50;16.50;;;;;23.51;100.00;101231.47;5083867;28;45467;-77
2022/05/20 10:17:00;;;;;;;;;18.75;18.00;;;;;23.40;100.00;101260.53;5088914;27;45462;-78
2022/05/20 10:20:03;;;;;;;;;19.25;15.75;;;;;23.07;100.00;101323.03;5085431;28;45379;-77
2022/05/20 10:22:53;;;;;;;;;23.25;19.00;;;;;22.81;100.00;101357.31;5083443;28;45339;-79
2022/05/20 10:25:31;;;;;;;;;21.50;17.75;;;;;22.68;100.00;101359.06;5085073;27;45401;-81
2022/05/20 10:28:12;;;;;;;;;20.25;19.00;;;;;22.64;100.00;101336.16;5089607;27;46380;-80
2022/05/20 10:33:35;;;;;;;;;20.50;18.75;;;;;22.77;100.00;101295.72;5080259;28;45492;-81
2022/05/20 10:36:23;;;;;;;;;19.25;18.00;;;;;22.88;100.00;101283.41;5079297;28;45220;-75
2022/05/20 10:39:01;;;;;;;;;23.50;18.25;;;;;23.02;100.00;101283.41;5079361;27;46134;-76
2022/05/20 10:41:29;;;;;;;;;25.00;19.75;;;;;23.18;100.00;101288.72;5079136;28;45937;-78
2022/05/20 10:50:38;;;;;;;;;23.25;23.25;;;;;23.52;100.00;101251.75;5079112;28;45323;-80
2022/05/20 10:53:21;;;;;;;;;21.75;20.00;;;;;23.54;100.00;101254.38;5078773;27;45264;-81
2022/05/20 10:56:09;;;;;;;;;23.50;21.75;;;;;23.54;100.00;101254.38;5079078;28;45550;-81
2022/05/20 10:58:37;;;;;;;;;24.25;23.75;;;;;23.69;100.00;101274.59;5078744;27;45484;-80
2022/05/20 11:01:33;;;;;;;;;23.75;21.25;;;;;23.86;100.00;101263.97;5078366;27;45580;-80
2022/05/20 11:04:27;;;;;;;;;25.25;24.25;;;;;24.05;100.00;101273.63;5077589;27;45415;-80
2022/05/20 11:07:11;;;;;;;;;30.25;24.50;;;;;24.09;100.00;101290.38;5081078;27;45350;-83
2022/05/20 11:10:06;;;;;;;;;19.25;19.25;;;;;24.04;100.00;101310.69;5078947;27;45319;-86
2022/05/20 11:13:22;;;;;;;;;22.25;19.75;;;;;23.93;100.00;101327.44;5079466;27;45463;-86
2022/05/20 11:16:12;;;;;;;;;20.00;20.00;;;;;23.85;100.00;101341.53;5048993;27;45543;-86
2022/05/20 11:18:38;;;;;;;;;20.25;19.75;;;;;23.79;100.00;101345.97;5079188;28;45479;-88
2022/05/20 11:21:50;;;;;;;;;23.25;20.50;;;;;23.79;100.00;101345.97;5093450;27;45741;-87
2022/05/20 11:24:41;;;;;;;;;16.50;15.75;;;;;23.78;100.00;101338.94;5062149;27;45503;-84
2022/05/20 11:27:18;;;;;;;;;21.75;19.50;;;;;23.92;100.00;101343.28;5078040;27;45466;-87
2022/05/20 11:30:01;;;;;;;;;19.75;16.50;;;;;24.07;100.00;101331.84;5077402;28;45578;-87
2022/05/20 11:33:09;;;;;;;;;18.75;16.00;;;;;24.26;100.00;101327.34;5084937;27;45346;-85
2022/05/20 11:35:58;;;;;;;;;19.25;18.25;;;;;24.39;100.00;101325.56;5072737;27;45987;-82
2022/05/20 11:38:35;;;;;;;;;19.50;17.50;;;;;24.53;100.00;101326.34;5078192;27;45859;-76
2022/05/20 11:41:10;;;;;;;;;20.00;18.25;;;;;24.66;100.00;101337.78;5081441;27;45498;-80
2022/05/20 11:43:50;;;;;;;;;18.75;15.75;;;;;24.66;100.00;101345.72;5094938;27;45459;-87
2022/05/20 11:46:35;;;;;;;;;17.00;16.00;;;;;24.71;100.00;101338.63;5078445;28;45252;-86
2022/05/20 11:49:09;;;;;;;;;14.25;14.00;;;;;24.82;100.00;101332.41;5084651;27;45747;-86
2022/05/20 11:52:14;;;;;;;;;14.50;14.25;;;;;24.90;100.00;101343.81;5088108;27;45289;-81
2022/05/20 11:54:50;;;;;;;;;14.00;13.25;;;;;24.93;100.00;101327.91;5067586;27;45457;-89
2022/05/20 11:57:21;;;;;;;;;14.75;14.50;;;;;24.94;100.00;101316.44;5097288;27;46122;-92
2022/05/20 12:00:07;;;;;;;;;13.25;12.00;;;;;24.94;100.00;101292.59;5083054;28;45285;-90
2022/05/20 12:02:45;;;;;;;;;19.25;14.25;;;;;24.95;100.00;101288.16;5093247;28;45298;-87
2022/05/20 12:05:14;;;;;;;;;15.50;13.25;;;;;25.02;100.00;101287.25;5086337;27;45271;-90
2022/05/20 12:07:40;;;;;;;;;14.00;11.00;;;;;25.05;100.00;101292.53;5087463;28;45303;-89
2022/05/20 12:10:29;;;;;;;;;16.25;14.50;;;;;25.08;100.00;101294.25;5064561;27;45371;-91
2022/05/20 12:13:14;;;;;;;;;14.75;14.75;;;;;25.09;100.00;101296.03;5081028;28;45426;-92
2022/05/20 12:16:05;;;;;;;;;13.00;12.50;;;;;25.13;100.00;101296.00;5081522;27;45435;-87